createdAt,value
2017-11-20T00:04:18.443Z,7.37
2017-11-20T00:09:21.354Z,3.50
2017-11-20T00:14:24.051Z,4.17
2017-11-20T00:19:27.500Z,5.47
2017-11-20T00:24:30.279Z,4.73
2017-11-20T00:29:33.688Z,4.10
2017-11-20T00:34:36.284Z,4.20
2017-11-20T00:39:39.853Z,6.30
2017-11-20T00:44:43.262Z,6.97
2017-11-20T00:49:46.838Z,6.27
2017-11-20T00:54:50.375Z,2.93
2017-11-20T00:59:53.859Z,2.43
2017-11-20T01:04:56.646Z,5.80
2017-11-20T01:10:00.198Z,5.73
2017-11-20T01:15:03.540Z,5.37
2017-11-20T01:20:06.207Z,5.57
2017-11-20T01:25:09.587Z,5.03
2017-11-20T01:30:12.336Z,3.53
2017-11-20T01:35:15.682Z,2.97
2017-11-20T01:40:19.140Z,4.47
2017-11-20T01:45:21.713Z,7.50
2017-11-20T01:50:25.133Z,4.43
2017-11-20T01:55:27.747Z,5.30
2017-11-20T02:00:31.210Z,3.30
2017-11-20T02:05:33.781Z,5.97
2017-11-20T02:10:37.504Z,6.57
2017-11-20T02:15:40.883Z,6.37
2017-11-20T02:20:43.599Z,3.67
2017-11-20T02:25:46.250Z,4.93
2017-11-20T02:30:48.896Z,5.10
2017-11-20T02:35:51.705Z,6.13
2017-11-20T02:40:54.894Z,4.43
2017-11-20T02:45:57.516Z,5.10
2017-11-20T02:51:00.935Z,7.17
2017-11-20T02:56:03.522Z,4.20
2017-11-20T03:01:06.891Z,2.87
2017-11-20T03:06:09.565Z,6.60
2017-11-20T03:11:13.002Z,3.67
2017-11-20T03:16:15.599Z,7.00
2017-11-20T03:21:18.702Z,4.97
2017-11-20T03:26:22.087Z,3.30
2017-11-20T03:31:25.137Z,5.17
2017-11-20T03:36:27.729Z,9.60
2017-11-20T03:41:32.172Z,5.67
2017-11-20T03:46:34.775Z,6.33
2017-11-20T03:51:38.031Z,9.63
2017-11-20T03:56:40.655Z,7.70
2017-11-20T04:01:44.950Z,3.10
2017-11-20T04:06:47.572Z,10.37
2017-11-20T04:11:50.189Z,6.10
2017-11-20T04:16:54.319Z,7.47
2017-11-20T04:21:58.140Z,8.63
2017-11-20T04:27:00.741Z,4.60
2017-11-20T04:32:04.332Z,7.43
2017-11-20T04:37:06.996Z,9.67
2017-11-20T04:42:11.248Z,6.57
2017-11-20T04:47:13.859Z,9.00
2017-11-20T04:52:17.369Z,8.30
2017-11-20T04:57:19.987Z,8.30
2017-11-20T05:02:22.892Z,8.53
2017-11-20T05:07:25.503Z,8.07
2017-11-20T05:12:28.948Z,9.00
2017-11-20T05:17:31.540Z,8.63
2017-11-20T05:22:35.096Z,9.67
2017-11-20T05:27:37.708Z,7.70
2017-11-20T05:32:40.351Z,8.80
2017-11-20T05:37:44.426Z,6.47
2017-11-20T05:42:47.834Z,7.90
2017-11-20T05:47:51.233Z,7.67
2017-11-20T05:52:55.180Z,9.73
2017-11-20T05:57:57.775Z,9.17
2017-11-20T06:03:01.319Z,7.40
2017-11-20T06:08:05.231Z,6.13
2017-11-20T06:13:08.405Z,8.23
2017-11-20T06:18:13.774Z,8.63
2017-11-20T06:23:16.585Z,7.20
2017-11-20T06:28:33.720Z,6.87
2017-11-20T06:33:38.360Z,7.73
2017-11-20T06:38:40.989Z,7.37
2017-11-20T06:43:45.341Z,9.43
2017-11-20T06:48:47.981Z,7.23
2017-11-20T06:53:51.164Z,13.30
2017-11-20T06:58:53.760Z,7.07
2017-11-20T07:03:56.643Z,7.30
2017-11-20T07:08:59.704Z,13.13
2017-11-20T07:14:02.938Z,12.23
2017-11-20T07:19:07.556Z,10.53
2017-11-20T07:24:11.028Z,11.00
2017-11-20T07:34:56.152Z,10.83
2017-11-20T07:40:12.185Z,9.13
2017-11-20T07:45:14.855Z,14.43
2017-11-20T07:50:19.211Z,9.30
2017-11-20T07:55:22.529Z,9.97
2017-11-20T08:00:26.592Z,15.77
2017-11-20T08:05:29.531Z,10.20
2017-11-20T08:10:32.568Z,11.67
2017-11-20T08:15:35.918Z,13.10
2017-11-20T08:20:38.897Z,12.27
2017-11-20T08:25:41.548Z,11.60
2017-11-20T08:30:44.686Z,20.53
2017-11-20T08:35:48.714Z,14.67
2017-11-20T08:40:52.184Z,15.17
2017-11-20T08:45:54.847Z,13.57
2017-11-20T08:50:58.585Z,11.93
2017-11-20T08:56:01.205Z,17.27
2017-11-20T09:01:04.591Z,13.53
2017-11-20T09:06:07.186Z,16.07
2017-11-20T09:11:12.041Z,20.30
2017-11-20T09:16:14.668Z,14.57
2017-11-20T09:21:17.356Z,16.13
2017-11-20T09:26:22.696Z,12.30
2017-11-20T09:31:26.668Z,14.60
2017-11-20T09:36:29.256Z,15.80
2017-11-20T09:41:32.112Z,10.50
2017-11-20T09:46:34.731Z,15.83
2017-11-20T09:51:38.473Z,15.83
2017-11-20T09:56:41.112Z,9.53
2017-11-20T10:01:44.280Z,12.80
2017-11-20T10:06:46.882Z,10.93
2017-11-20T10:11:50.166Z,11.40
2017-11-20T10:16:53.564Z,13.23
2017-11-20T10:21:56.347Z,12.97
2017-11-20T10:26:59.046Z,12.87
2017-11-20T10:32:02.251Z,10.53
2017-11-20T10:37:04.835Z,11.30
2017-11-20T10:42:08.296Z,13.73
2017-11-20T10:47:10.927Z,13.93
2017-11-20T10:52:14.206Z,9.93
2017-11-20T10:57:16.824Z,11.20
2017-11-20T11:02:21.139Z,12.73
2017-11-20T11:07:24.668Z,10.40
2017-11-20T11:12:27.550Z,12.47
2017-11-20T11:17:30.178Z,9.97
2017-11-20T11:22:33.619Z,10.87
2017-11-20T11:27:36.239Z,13.23
2017-11-20T11:32:39.804Z,10.23
2017-11-20T11:37:42.540Z,6.40
2017-11-20T11:42:45.568Z,13.10
2017-11-20T11:47:48.193Z,9.93
2017-11-20T11:52:50.884Z,10.23
2017-11-20T11:57:53.499Z,9.23
2017-11-20T12:02:56.958Z,10.80
2017-11-20T12:07:59.590Z,12.47
2017-11-20T12:13:03.156Z,10.27
2017-11-20T12:18:05.784Z,10.70
2017-11-20T12:23:09.147Z,5.93
2017-11-20T12:28:11.771Z,7.97
2017-11-20T12:33:15.312Z,8.70
2017-11-20T12:38:19.059Z,6.57
2017-11-20T12:43:22.283Z,7.53
2017-11-20T12:48:24.880Z,9.47
2017-11-20T12:53:28.394Z,8.87
2017-11-20T12:58:31.025Z,5.80
2017-11-20T13:03:33.889Z,6.40
2017-11-20T13:08:36.500Z,6.43
2017-11-20T13:13:40.078Z,9.27
2017-11-20T13:18:43.472Z,9.27
2017-11-20T13:23:46.339Z,4.77
2017-11-20T13:28:49.096Z,5.20
2017-11-20T13:33:53.354Z,4.50
2017-11-20T13:38:55.953Z,9.17
2017-11-20T13:43:59.306Z,6.60
2017-11-20T13:49:02.047Z,7.20
2017-11-20T13:54:06.084Z,4.30
2017-11-20T13:59:09.476Z,8.73
2017-11-20T14:04:12.292Z,4.27
2017-11-20T14:09:14.982Z,5.37
2017-11-20T14:14:18.300Z,6.67
2017-11-20T14:19:20.997Z,4.90
2017-11-20T14:24:23.907Z,3.97
2017-11-20T14:29:27.325Z,5.10
2017-11-20T14:34:30.904Z,11.40
2017-11-20T14:39:33.515Z,4.23
2017-11-20T14:44:36.380Z,5.63
2017-11-20T14:49:39.106Z,3.47
2017-11-20T14:54:46.588Z,5.63
2017-11-20T14:59:50.047Z,3.13
2017-11-20T15:04:53.003Z,4.20
2017-11-20T15:09:56.369Z,7.30
2017-11-20T15:14:59.417Z,7.63
2017-11-20T15:20:02.126Z,4.13
2017-11-20T15:25:05.560Z,3.67
2017-11-20T15:30:08.371Z,5.50
2017-11-20T15:35:11.519Z,3.90
2017-11-20T15:40:14.252Z,3.10
2017-11-20T15:45:18.613Z,2.70
2017-11-20T15:50:21.240Z,2.97
2017-11-20T15:55:23.897Z,2.50
2017-11-20T16:00:27.282Z,3.37
2017-11-20T16:05:30.675Z,2.93
2017-11-20T16:10:33.255Z,2.80
2017-11-20T16:15:36.710Z,3.37
2017-11-20T16:20:39.368Z,2.83
2017-11-20T16:25:42.944Z,4.07
2017-11-20T16:30:45.523Z,3.27
2017-11-20T16:35:48.982Z,3.57
2017-11-20T16:40:52.326Z,2.60
2017-11-20T16:45:55.055Z,3.27
2017-11-20T16:50:57.814Z,3.97
2017-11-20T16:56:01.289Z,5.00
2017-11-20T17:01:05.454Z,6.00
2017-11-20T17:06:09.068Z,8.50
2017-11-20T17:11:12.462Z,11.10
2017-11-20T17:16:16.037Z,16.67
2017-11-20T17:21:18.722Z,16.97
2017-11-20T17:26:21.781Z,21.40
2017-11-20T17:31:24.410Z,23.67
2017-11-20T17:36:27.960Z,16.77
2017-11-20T17:41:30.761Z,22.40
2017-11-20T17:46:33.538Z,22.20
2017-11-20T17:51:37.005Z,22.70
2017-11-20T17:56:39.823Z,21.40
2017-11-20T18:01:42.683Z,19.13
2017-11-20T18:06:46.819Z,20.27
2017-11-20T18:11:49.520Z,17.37
2017-11-20T18:16:53.151Z,15.80
2017-11-20T18:21:55.871Z,16.40
2017-11-20T18:26:59.391Z,15.10
2017-11-20T18:32:02.009Z,12.23
2017-11-20T18:37:05.393Z,14.73
2017-11-20T18:42:08.055Z,11.10
2017-11-20T18:47:11.598Z,12.90
2017-11-20T18:52:14.316Z,16.00
2017-11-20T18:57:17.621Z,14.03
2017-11-20T19:02:32.166Z,13.27
2017-11-20T19:07:47.418Z,12.47
2017-11-20T19:12:50.294Z,11.40
2017-11-20T19:17:54.047Z,13.67
2017-11-20T19:22:56.849Z,10.53
2017-11-20T19:27:59.518Z,10.77
2017-11-20T19:33:02.221Z,11.70
2017-11-20T19:38:05.827Z,13.57
2017-11-20T19:43:09.211Z,12.70
2017-11-20T19:48:12.129Z,11.47
2017-11-20T19:53:14.778Z,11.37
2017-11-20T19:58:18.277Z,10.60
2017-11-20T20:03:20.978Z,10.60
2017-11-20T20:08:23.826Z,10.20
2017-11-20T20:13:38.612Z,11.30
2017-11-20T20:18:41.483Z,9.97
2017-11-20T20:23:44.192Z,9.23
2017-11-20T20:28:47.274Z,13.07
2017-11-20T20:33:49.954Z,7.93
2017-11-20T20:38:54.836Z,8.83
2017-11-20T20:43:58.578Z,8.77
2017-11-20T20:49:01.574Z,10.83
2017-11-20T20:54:04.213Z,10.67
2017-11-20T20:59:07.878Z,9.27
2017-11-20T21:04:10.532Z,10.37
2017-11-20T21:09:13.597Z,8.63
2017-11-20T21:14:16.289Z,10.07
2017-11-20T21:19:19.720Z,9.00
2017-11-20T21:24:31.060Z,9.07
2017-11-20T21:29:33.853Z,9.10
2017-11-20T21:34:36.705Z,8.90
2017-11-20T21:39:40.973Z,9.23
2017-11-20T21:44:43.624Z,8.60
2017-11-20T21:49:46.682Z,7.90
2017-11-20T21:54:49.385Z,8.93
2017-11-20T21:59:52.010Z,7.23
2017-11-20T22:04:54.752Z,9.10
2017-11-20T22:09:58.252Z,7.90
2017-11-20T22:15:00.949Z,8.00
2017-11-20T22:20:04.616Z,7.57
2017-11-20T22:25:07.308Z,7.50
2017-11-20T22:30:10.620Z,10.07
2017-11-20T22:35:13.415Z,10.43
2017-11-20T22:40:17.130Z,9.03
2017-11-20T22:45:20.541Z,10.10
2017-11-20T22:50:23.922Z,10.23
2017-11-20T22:55:26.565Z,8.33
2017-11-20T23:00:30.213Z,8.67
2017-11-20T23:05:32.836Z,9.10
2017-11-20T23:10:35.906Z,9.03
2017-11-20T23:15:38.609Z,7.57
2017-11-20T23:20:41.870Z,8.17
2017-11-20T23:25:44.558Z,10.90
2017-11-20T23:30:48.022Z,7.80
2017-11-20T23:35:51.430Z,10.43
2017-11-20T23:40:55.779Z,8.67
2017-11-20T23:45:59.318Z,9.80
2017-11-20T23:51:02.692Z,9.40
2017-11-20T23:56:06.134Z,9.47
